createdAt,value
2018-07-25T00:00:35.231Z,0
2018-07-25T00:01:15.808Z,0
2018-07-25T00:01:56.310Z,0
2018-07-25T00:02:36.818Z,0
2018-07-25T00:03:17.337Z,0
2018-07-25T00:03:57.833Z,0
2018-07-25T00:04:38.306Z,0
2018-07-25T00:05:18.770Z,0
2018-07-25T00:05:59.269Z,0
2018-07-25T00:06:39.757Z,0
2018-07-25T00:07:20.313Z,0
2018-07-25T00:08:00.781Z,0
2018-07-25T00:08:41.330Z,0
2018-07-25T00:09:21.809Z,0
2018-07-25T00:10:02.256Z,0
2018-07-25T00:10:42.802Z,0
2018-07-25T00:11:23.277Z,0
2018-07-25T00:12:03.861Z,0
2018-07-25T00:12:44.373Z,0
2018-07-25T00:13:24.863Z,0
2018-07-25T00:14:05.349Z,0
2018-07-25T00:14:45.921Z,0
2018-07-25T00:15:26.367Z,0
2018-07-25T00:16:06.857Z,0
2018-07-25T00:16:47.320Z,0
2018-07-25T00:17:27.846Z,0
2018-07-25T00:18:08.344Z,0
2018-07-25T00:18:48.902Z,0
2018-07-25T00:19:29.413Z,0
2018-07-25T00:20:09.916Z,0
2018-07-25T00:20:50.376Z,0
2018-07-25T00:21:30.997Z,0
2018-07-25T00:22:11.371Z,0
2018-07-25T00:22:51.923Z,0
2018-07-25T00:23:32.426Z,0
2018-07-25T00:24:12.884Z,0
2018-07-25T00:24:53.397Z,0
2018-07-25T00:25:33.919Z,0
2018-07-25T00:26:14.384Z,0
2018-07-25T00:26:54.907Z,0
2018-07-25T00:27:35.355Z,0
2018-07-25T00:28:15.918Z,0
2018-07-25T00:28:56.448Z,0
2018-07-25T00:29:37.009Z,0
2018-07-25T00:30:17.470Z,0
2018-07-25T00:30:57.927Z,0
2018-07-25T00:31:38.441Z,0
2018-07-25T00:32:18.899Z,0
2018-07-25T00:32:59.395Z,0
2018-07-25T00:33:39.906Z,0
2018-07-25T00:34:20.404Z,0
2018-07-25T00:35:00.909Z,0
2018-07-25T00:35:41.403Z,0
2018-07-25T00:36:22.015Z,0
2018-07-25T00:37:02.345Z,0
2018-07-25T00:37:42.865Z,0
2018-07-25T00:38:23.360Z,0
2018-07-25T00:39:03.822Z,0
2018-07-25T00:39:44.348Z,0
2018-07-25T00:40:24.835Z,0
2018-07-25T00:41:05.296Z,0
2018-07-25T00:41:45.852Z,0
2018-07-25T00:42:26.305Z,0
2018-07-25T00:43:06.798Z,0
2018-07-25T00:43:47.342Z,0
2018-07-25T00:44:27.800Z,0
2018-07-25T00:45:08.239Z,0
2018-07-25T00:45:48.784Z,0
2018-07-25T00:46:29.233Z,0
2018-07-25T00:47:09.784Z,0
2018-07-25T00:47:50.250Z,0
2018-07-25T00:48:30.772Z,0
2018-07-25T00:49:11.352Z,0
2018-07-25T00:49:51.812Z,0
2018-07-25T00:50:32.354Z,0
2018-07-25T00:51:13.767Z,0
2018-07-25T00:51:54.331Z,0
2018-07-25T00:52:34.850Z,0
2018-07-25T00:53:15.301Z,0
2018-07-25T00:53:55.821Z,0
2018-07-25T00:54:36.351Z,0
2018-07-25T00:55:16.962Z,0
2018-07-25T00:55:57.603Z,0
2018-07-25T00:56:38.066Z,0
2018-07-25T00:57:18.560Z,0
2018-07-25T00:57:59.059Z,0
2018-07-25T00:58:39.592Z,0
2018-07-25T00:59:20.094Z,0
2018-07-25T01:00:00.559Z,0
2018-07-25T01:00:41.052Z,0
2018-07-25T01:01:21.582Z,0
2018-07-25T01:02:02.095Z,0
2018-07-25T01:02:42.583Z,0
2018-07-25T01:03:23.125Z,0
2018-07-25T01:04:03.623Z,0
2018-07-25T01:04:44.042Z,0
2018-07-25T01:05:24.569Z,0
2018-07-25T01:06:05.075Z,0
2018-07-25T01:06:45.515Z,0
2018-07-25T01:07:26.090Z,0
2018-07-25T01:08:06.512Z,0
2018-07-25T01:08:47.023Z,0
2018-07-25T01:09:27.610Z,0
2018-07-25T01:10:08.034Z,0
2018-07-25T01:10:48.556Z,0
2018-07-25T01:11:29.058Z,0
2018-07-25T01:12:09.661Z,0
2018-07-25T01:12:50.105Z,0
2018-07-25T01:13:30.638Z,0
2018-07-25T01:14:11.051Z,0
2018-07-25T01:14:51.601Z,0
2018-07-25T01:15:32.097Z,0
2018-07-25T01:16:12.571Z,0
2018-07-25T01:16:53.087Z,0
2018-07-25T01:17:33.602Z,0
2018-07-25T01:18:14.092Z,0
2018-07-25T01:18:54.559Z,0
2018-07-25T01:19:35.096Z,0
2018-07-25T01:20:15.638Z,0
2018-07-25T01:20:56.176Z,0
2018-07-25T01:21:36.658Z,0
2018-07-25T01:22:17.172Z,0
2018-07-25T01:22:57.734Z,0
2018-07-25T01:23:38.298Z,0
2018-07-25T01:24:18.793Z,0
2018-07-25T01:24:59.303Z,0
2018-07-25T01:25:39.786Z,0
2018-07-25T01:26:20.296Z,0
2018-07-25T01:27:00.782Z,0
2018-07-25T01:27:41.282Z,0
2018-07-25T01:28:21.781Z,0
2018-07-25T01:29:03.343Z,0
2018-07-25T01:29:43.814Z,0
2018-07-25T01:30:24.255Z,0
2018-07-25T01:31:04.780Z,0
2018-07-25T01:31:45.371Z,0
2018-07-25T01:32:25.852Z,0
2018-07-25T01:33:06.335Z,0
2018-07-25T01:33:46.828Z,0
2018-07-25T01:34:27.372Z,0
2018-07-25T01:35:07.869Z,0
2018-07-25T01:35:48.376Z,0
2018-07-25T01:36:28.874Z,0
2018-07-25T01:37:09.380Z,0
2018-07-25T01:37:49.853Z,0
2018-07-25T01:38:30.358Z,0
2018-07-25T01:39:10.815Z,0
2018-07-25T01:39:51.402Z,0
2018-07-25T01:40:31.821Z,0
2018-07-25T01:41:12.332Z,0
2018-07-25T01:41:52.813Z,0
2018-07-25T01:42:33.326Z,0
2018-07-25T01:43:13.800Z,0
2018-07-25T01:43:54.314Z,0
2018-07-25T01:44:34.869Z,0
2018-07-25T01:45:15.359Z,0
2018-07-25T01:45:55.818Z,0
2018-07-25T01:46:36.333Z,0
2018-07-25T01:47:16.800Z,0
2018-07-25T01:47:57.325Z,0
2018-07-25T01:48:38.012Z,0
2018-07-25T01:49:18.345Z,0
2018-07-25T01:49:58.833Z,0
2018-07-25T01:50:39.298Z,0
2018-07-25T01:51:19.778Z,0
2018-07-25T01:52:00.325Z,0
2018-07-25T01:52:40.867Z,0
2018-07-25T01:53:21.332Z,0
2018-07-25T01:54:01.856Z,0
2018-07-25T01:54:42.360Z,0
2018-07-25T01:55:22.903Z,0
2018-07-25T01:56:03.487Z,0
2018-07-25T01:56:43.993Z,0
2018-07-25T01:57:24.496Z,0
2018-07-25T01:58:04.941Z,0
2018-07-25T01:58:45.444Z,0
2018-07-25T01:59:25.938Z,0
2018-07-25T02:00:06.398Z,0
2018-07-25T02:00:46.893Z,0
2018-07-25T02:01:27.534Z,0
2018-07-25T02:02:07.911Z,0
2018-07-25T02:02:48.373Z,0
2018-07-25T02:03:28.954Z,0
2018-07-25T02:04:09.464Z,0
2018-07-25T02:04:49.938Z,0
2018-07-25T02:05:30.386Z,0
2018-07-25T02:06:10.922Z,0
2018-07-25T02:06:51.471Z,0
2018-07-25T02:07:32.003Z,0
2018-07-25T02:08:12.608Z,0
2018-07-25T02:08:52.991Z,0
2018-07-25T02:09:33.485Z,0
2018-07-25T02:10:13.987Z,0
2018-07-25T02:10:54.453Z,0
2018-07-25T02:11:34.980Z,0
2018-07-25T02:12:15.472Z,0
2018-07-25T02:12:56.091Z,0
2018-07-25T02:13:36.509Z,0
2018-07-25T02:14:16.996Z,0
2018-07-25T02:14:57.636Z,0
2018-07-25T02:15:38.093Z,0
2018-07-25T02:16:18.622Z,0
2018-07-25T02:16:59.118Z,0
2018-07-25T02:17:39.615Z,0
2018-07-25T02:18:20.101Z,0
2018-07-25T02:19:00.690Z,0
2018-07-25T02:19:41.164Z,0
2018-07-25T02:20:21.710Z,0
2018-07-25T02:21:02.177Z,0
2018-07-25T02:21:42.691Z,0
2018-07-25T02:22:23.223Z,0
2018-07-25T02:23:03.720Z,0
2018-07-25T02:23:44.223Z,0
2018-07-25T02:24:24.706Z,0
2018-07-25T02:25:05.268Z,0
2018-07-25T02:25:45.794Z,0
2018-07-25T02:26:26.273Z,0
2018-07-25T02:27:06.789Z,0
2018-07-25T02:27:47.292Z,0
2018-07-25T02:28:27.788Z,0
2018-07-25T02:29:08.285Z,0
2018-07-25T02:29:48.776Z,0
2018-07-25T02:30:29.291Z,0
2018-07-25T02:31:09.742Z,0
2018-07-25T02:31:50.272Z,0
2018-07-25T02:32:30.817Z,0
2018-07-25T02:33:11.347Z,0
2018-07-25T02:33:51.778Z,0
2018-07-25T02:34:32.289Z,0
2018-07-25T02:35:12.834Z,0
2018-07-25T02:35:53.308Z,0
2018-07-25T02:36:33.811Z,0
2018-07-25T02:37:14.284Z,0
2018-07-25T02:37:54.838Z,0
2018-07-25T02:38:35.272Z,0
2018-07-25T02:39:15.776Z,0
2018-07-25T02:39:56.232Z,0
2018-07-25T02:40:36.753Z,0
2018-07-25T02:41:17.249Z,0
2018-07-25T02:41:57.688Z,0
2018-07-25T02:42:38.312Z,0
2018-07-25T02:43:18.797Z,0
2018-07-25T02:43:59.304Z,0
2018-07-25T02:44:39.829Z,0
2018-07-25T02:45:20.272Z,0
2018-07-25T02:46:00.786Z,0
2018-07-25T02:46:41.277Z,0
2018-07-25T02:47:21.815Z,0
2018-07-25T02:48:02.298Z,0
2018-07-25T02:48:42.813Z,0
2018-07-25T02:49:23.316Z,0
2018-07-25T02:50:03.823Z,0
2018-07-25T02:50:44.297Z,0
2018-07-25T02:51:24.780Z,0
2018-07-25T02:52:05.261Z,0
2018-07-25T02:52:45.803Z,0
2018-07-25T02:53:26.301Z,0
2018-07-25T02:54:06.779Z,0
2018-07-25T02:54:47.315Z,0
2018-07-25T02:55:27.812Z,0
2018-07-25T02:56:08.304Z,0
2018-07-25T02:56:48.818Z,0
2018-07-25T02:57:29.309Z,0
2018-07-25T02:58:09.828Z,0
2018-07-25T02:58:50.270Z,0
2018-07-25T02:59:30.773Z,0
2018-07-25T03:00:11.301Z,0
2018-07-25T03:00:51.888Z,0
2018-07-25T03:01:32.367Z,0
2018-07-25T03:02:12.817Z,0
2018-07-25T03:02:53.365Z,0
2018-07-25T03:03:33.787Z,0
2018-07-25T03:04:14.360Z,0
2018-07-25T03:04:54.821Z,0
2018-07-25T03:05:35.351Z,0
2018-07-25T03:06:15.841Z,0
2018-07-25T03:06:56.350Z,0
2018-07-25T03:07:36.857Z,0
2018-07-25T03:08:17.340Z,0
2018-07-25T03:08:57.821Z,0
2018-07-25T03:09:38.264Z,0
2018-07-25T03:10:18.760Z,0
2018-07-25T03:10:59.255Z,0
2018-07-25T03:11:39.756Z,0
2018-07-25T03:12:20.267Z,0
2018-07-25T03:13:00.767Z,0
2018-07-25T03:13:41.245Z,0
2018-07-25T03:14:21.770Z,0
2018-07-25T03:15:02.505Z,0
2018-07-25T03:15:42.971Z,0
2018-07-25T03:16:23.468Z,0
2018-07-25T03:17:04.004Z,0
2018-07-25T03:17:44.458Z,0
2018-07-25T03:18:25.025Z,0
2018-07-25T03:19:05.459Z,0
2018-07-25T03:19:45.973Z,0
2018-07-25T03:20:26.475Z,0
2018-07-25T03:21:06.970Z,0
2018-07-25T03:21:47.473Z,0
2018-07-25T03:22:27.959Z,0
2018-07-25T03:23:08.411Z,0
2018-07-25T03:23:48.909Z,0
2018-07-25T03:24:29.456Z,0
2018-07-25T03:25:09.925Z,0
2018-07-25T03:25:50.398Z,0
2018-07-25T03:26:30.950Z,0
2018-07-25T03:27:11.398Z,0
2018-07-25T03:27:51.928Z,0
2018-07-25T03:28:32.422Z,0
2018-07-25T03:29:12.878Z,0
2018-07-25T03:29:53.393Z,0
2018-07-25T03:30:33.930Z,0
2018-07-25T03:31:14.436Z,0
2018-07-25T03:31:54.860Z,0
2018-07-25T03:32:35.420Z,0
2018-07-25T03:33:15.861Z,0
2018-07-25T03:33:56.450Z,0
2018-07-25T03:34:36.960Z,0
2018-07-25T03:35:17.443Z,0
2018-07-25T03:35:57.995Z,0
2018-07-25T03:36:38.567Z,0
2018-07-25T03:37:18.993Z,0
2018-07-25T03:37:59.518Z,0
2018-07-25T03:38:40.038Z,0
2018-07-25T03:39:20.563Z,0
2018-07-25T03:40:00.986Z,0
2018-07-25T03:40:41.523Z,0
2018-07-25T03:41:22.069Z,0
2018-07-25T03:42:02.597Z,0
2018-07-25T03:42:43.048Z,0
2018-07-25T03:43:23.551Z,0
2018-07-25T03:44:04.050Z,0
2018-07-25T03:44:44.525Z,0
2018-07-25T03:45:24.988Z,5
2018-07-25T03:46:05.535Z,5
2018-07-25T03:46:45.965Z,5
2018-07-25T03:47:26.575Z,5
2018-07-25T03:48:07.161Z,5
2018-07-25T03:48:47.732Z,5
2018-07-25T03:49:28.201Z,5
2018-07-25T03:50:08.808Z,5
2018-07-25T03:50:49.304Z,5
2018-07-25T03:51:29.733Z,5
2018-07-25T03:52:10.172Z,5
2018-07-25T03:52:50.739Z,5
2018-07-25T03:53:31.176Z,5
2018-07-25T03:54:11.696Z,5
2018-07-25T03:54:52.179Z,10
2018-07-25T03:55:32.822Z,10
2018-07-25T03:56:13.155Z,10
2018-07-25T03:56:53.687Z,10
2018-07-25T03:57:34.211Z,10
2018-07-25T03:58:14.673Z,10
2018-07-25T03:58:55.147Z,10
2018-07-25T03:59:35.615Z,10
2018-07-25T04:00:16.167Z,10
2018-07-25T04:00:56.733Z,15
2018-07-25T04:01:37.186Z,15
2018-07-25T04:02:17.711Z,15
2018-07-25T04:02:58.161Z,15
2018-07-25T04:03:38.658Z,15
2018-07-25T04:04:19.149Z,15
2018-07-25T04:04:59.613Z,15
2018-07-25T04:05:40.634Z,20
2018-07-25T04:06:21.091Z,20
2018-07-25T04:07:01.565Z,20
2018-07-25T04:07:42.085Z,20
2018-07-25T04:08:22.620Z,20
2018-07-25T04:09:03.127Z,20
2018-07-25T04:09:43.540Z,20
2018-07-25T04:10:24.032Z,25
2018-07-25T04:11:04.987Z,25
2018-07-25T04:11:45.497Z,25
2018-07-25T04:12:25.990Z,25
2018-07-25T04:13:06.489Z,25
2018-07-25T04:13:47.049Z,25
2018-07-25T04:14:27.473Z,30
2018-07-25T04:15:08.705Z,30
2018-07-25T04:15:49.227Z,30
2018-07-25T04:16:29.698Z,30
2018-07-25T04:17:10.177Z,30
2018-07-25T04:17:50.731Z,35
2018-07-25T04:18:31.410Z,35
2018-07-25T04:19:11.885Z,35
2018-07-25T04:19:52.328Z,35
2018-07-25T04:20:32.886Z,35
2018-07-25T04:21:13.393Z,40
2018-07-25T04:21:53.894Z,40
2018-07-25T04:22:34.426Z,40
2018-07-25T04:23:14.860Z,40
2018-07-25T04:23:55.332Z,40
2018-07-25T04:24:35.917Z,45
2018-07-25T04:25:16.429Z,45
2018-07-25T04:25:56.889Z,45
2018-07-25T04:26:37.338Z,45
2018-07-25T04:27:17.856Z,45
2018-07-25T04:27:58.351Z,50
2018-07-25T04:28:40.610Z,50
2018-07-25T04:29:21.124Z,50
2018-07-25T04:30:01.596Z,50
2018-07-25T04:30:42.087Z,50
2018-07-25T04:31:22.584Z,55
2018-07-25T04:32:03.070Z,55
2018-07-25T04:32:43.578Z,55
2018-07-25T04:33:24.029Z,55
2018-07-25T04:34:04.542Z,60
2018-07-25T04:34:45.160Z,60
2018-07-25T04:35:25.626Z,60
2018-07-25T04:36:06.068Z,65
2018-07-25T04:36:46.579Z,70
2018-07-25T04:37:27.065Z,70
2018-07-25T04:38:07.537Z,75
2018-07-25T04:38:48.073Z,70
2018-07-25T04:39:28.517Z,75
2018-07-25T04:40:09.049Z,70
2018-07-25T04:40:49.517Z,70
2018-07-25T04:41:30.047Z,75
2018-07-25T04:42:10.493Z,80
2018-07-25T04:42:51.016Z,80
2018-07-25T04:43:31.509Z,75
2018-07-25T04:44:12.019Z,75
2018-07-25T04:44:52.621Z,80
2018-07-25T04:45:33.050Z,80
2018-07-25T04:46:13.561Z,80
2018-07-25T04:46:54.121Z,80
2018-07-25T04:47:34.560Z,80
2018-07-25T04:48:15.074Z,80
2018-07-25T04:48:55.558Z,80
2018-07-25T04:49:36.090Z,85
2018-07-25T04:50:16.560Z,85
2018-07-25T04:50:57.075Z,90
2018-07-25T04:51:37.683Z,90
2018-07-25T04:52:18.344Z,90
2018-07-25T04:52:58.951Z,90
2018-07-25T04:53:39.468Z,90
2018-07-25T04:54:19.927Z,90
2018-07-25T04:55:00.441Z,95
2018-07-25T04:55:40.981Z,95
2018-07-25T04:56:21.485Z,105
2018-07-25T04:57:02.034Z,120
2018-07-25T04:57:42.769Z,120
2018-07-25T04:58:23.706Z,115
2018-07-25T04:59:03.713Z,110
2018-07-25T04:59:44.230Z,110
2018-07-25T05:00:24.772Z,110
2018-07-25T05:01:05.336Z,105
2018-07-25T05:01:45.817Z,100
2018-07-25T05:02:26.391Z,105
2018-07-25T05:03:06.951Z,105
2018-07-25T05:03:47.520Z,105
2018-07-25T05:04:28.019Z,105
2018-07-25T05:05:08.763Z,105
2018-07-25T05:05:49.213Z,110
2018-07-25T05:06:29.788Z,110
2018-07-25T05:07:10.272Z,110
2018-07-25T05:07:50.804Z,120
2018-07-25T05:08:31.324Z,125
2018-07-25T05:09:11.830Z,125
2018-07-25T05:09:52.309Z,125
2018-07-25T05:10:32.739Z,120
2018-07-25T05:11:13.273Z,130
2018-07-25T05:11:53.788Z,140
2018-07-25T05:12:34.323Z,140
2018-07-25T05:13:14.794Z,135
2018-07-25T05:13:55.249Z,130
2018-07-25T05:14:35.767Z,125
2018-07-25T05:15:16.262Z,120
2018-07-25T05:15:56.731Z,120
2018-07-25T05:16:37.271Z,125
2018-07-25T05:17:17.764Z,125
2018-07-25T05:18:04.671Z,125
2018-07-25T05:18:41.631Z,125
2018-07-25T05:19:22.048Z,125
2018-07-25T05:20:02.561Z,125
2018-07-25T05:20:43.182Z,125
2018-07-25T05:21:23.564Z,125
2018-07-25T05:22:04.076Z,125
2018-07-25T05:22:44.593Z,125
2018-07-25T05:23:25.099Z,130
2018-07-25T05:24:05.611Z,140
2018-07-25T05:24:46.136Z,140
2018-07-25T05:25:26.666Z,140
2018-07-25T05:26:07.198Z,130
2018-07-25T05:26:47.698Z,130
2018-07-25T05:27:28.205Z,130
2018-07-25T05:28:08.726Z,130
2018-07-25T05:28:49.276Z,130
2018-07-25T05:29:29.756Z,135
2018-07-25T05:30:10.291Z,140
2018-07-25T05:30:50.788Z,140
2018-07-25T05:31:31.326Z,135
2018-07-25T05:32:11.838Z,135
2018-07-25T05:32:52.370Z,135
2018-07-25T05:33:32.861Z,135
2018-07-25T05:34:13.398Z,135
2018-07-25T05:34:53.867Z,135
2018-07-25T05:35:34.357Z,135
2018-07-25T05:36:14.900Z,135
2018-07-25T05:36:55.393Z,140
2018-07-25T05:37:35.869Z,140
2018-07-25T05:38:16.460Z,140
2018-07-25T05:38:56.910Z,140
2018-07-25T05:39:37.396Z,140
2018-07-25T05:40:17.864Z,140
2018-07-25T05:40:58.389Z,145
2018-07-25T05:41:38.923Z,145
2018-07-25T05:42:19.401Z,145
2018-07-25T05:42:59.893Z,145
2018-07-25T05:43:40.421Z,145
2018-07-25T05:44:20.855Z,145
2018-07-25T05:45:01.401Z,150
2018-07-25T05:45:41.940Z,150
2018-07-25T05:46:22.431Z,150
2018-07-25T05:47:02.985Z,150
2018-07-25T05:47:43.498Z,150
2018-07-25T05:48:23.991Z,155
2018-07-25T05:49:04.490Z,155
2018-07-25T05:49:44.988Z,155
2018-07-25T05:50:25.508Z,155
2018-07-25T05:51:06.013Z,160
2018-07-25T05:51:46.546Z,170
2018-07-25T05:52:27.024Z,170
2018-07-25T05:53:07.516Z,170
2018-07-25T05:53:48.047Z,175
2018-07-25T05:54:28.558Z,185
2018-07-25T05:55:09.074Z,185
2018-07-25T05:55:49.632Z,185
2018-07-25T05:56:30.117Z,190
2018-07-25T05:57:10.691Z,195
2018-07-25T05:57:51.178Z,200
2018-07-25T05:58:31.662Z,215
2018-07-25T05:59:12.213Z,220
2018-07-25T05:59:52.688Z,235
2018-07-25T06:00:33.167Z,240
2018-07-25T06:01:13.696Z,245
2018-07-25T06:01:54.211Z,250
2018-07-25T06:02:34.701Z,255
2018-07-25T06:03:15.271Z,250
2018-07-25T06:03:55.788Z,250
2018-07-25T06:04:36.287Z,250
2018-07-25T06:05:16.800Z,255
2018-07-25T06:05:57.346Z,250
2018-07-25T06:06:37.770Z,255
2018-07-25T06:07:18.283Z,255
2018-07-25T06:07:58.771Z,260
2018-07-25T06:08:39.286Z,255
2018-07-25T06:09:19.810Z,260
2018-07-25T06:10:00.250Z,260
2018-07-25T06:10:40.789Z,260
2018-07-25T06:11:21.309Z,265
2018-07-25T06:12:01.814Z,265
2018-07-25T06:12:42.343Z,270
2018-07-25T06:13:22.805Z,270
2018-07-25T06:14:03.316Z,270
2018-07-25T06:14:43.951Z,275
2018-07-25T06:15:24.354Z,275
2018-07-25T06:16:04.865Z,275
2018-07-25T06:16:45.317Z,275
2018-07-25T06:17:25.861Z,275
2018-07-25T06:18:06.378Z,275
2018-07-25T06:18:46.860Z,275
2018-07-25T06:19:27.359Z,275
2018-07-25T06:20:07.809Z,275
2018-07-25T06:20:48.328Z,275
2018-07-25T06:21:28.801Z,270
2018-07-25T06:22:09.325Z,270
2018-07-25T06:22:49.774Z,270
2018-07-25T06:23:30.272Z,275
2018-07-25T06:24:10.809Z,270
2018-07-25T06:24:51.311Z,265
2018-07-25T06:25:31.817Z,265
2018-07-25T06:26:12.352Z,260
2018-07-25T06:26:52.832Z,260
2018-07-25T06:27:33.359Z,260
2018-07-25T06:28:13.852Z,260
2018-07-25T06:28:54.371Z,260
2018-07-25T06:29:34.862Z,255
2018-07-25T06:30:15.365Z,255
2018-07-25T06:30:55.848Z,250
2018-07-25T06:31:36.365Z,250
2018-07-25T06:32:16.929Z,250
2018-07-25T06:32:57.409Z,250
2018-07-25T06:33:37.914Z,250
2018-07-25T06:34:18.433Z,250
2018-07-25T06:34:58.914Z,250
2018-07-25T06:35:39.418Z,250
2018-07-25T06:36:19.933Z,255
2018-07-25T06:37:00.435Z,255
2018-07-25T06:37:40.904Z,255
2018-07-25T06:38:21.464Z,255
2018-07-25T06:39:01.937Z,260
2018-07-25T06:39:42.420Z,260
2018-07-25T06:40:22.906Z,260
2018-07-25T06:41:03.445Z,260
2018-07-25T06:41:43.958Z,260
2018-07-25T06:42:24.443Z,260
2018-07-25T06:43:04.979Z,260
2018-07-25T06:43:45.549Z,260
2018-07-25T06:44:25.993Z,260
2018-07-25T06:45:06.499Z,255
2018-07-25T06:45:47.041Z,255
2018-07-25T06:46:27.532Z,255
2018-07-25T06:47:08.036Z,255
2018-07-25T06:47:48.519Z,255
2018-07-25T06:48:29.019Z,255
2018-07-25T06:49:09.564Z,255
2018-07-25T06:49:50.057Z,255
2018-07-25T06:50:30.534Z,260
2018-07-25T06:51:11.050Z,260
2018-07-25T06:51:51.559Z,265
2018-07-25T06:52:32.048Z,265
2018-07-25T06:53:12.547Z,265
2018-07-25T06:53:53.026Z,270
2018-07-25T06:54:33.582Z,265
2018-07-25T06:55:14.101Z,270
2018-07-25T06:55:54.622Z,270
2018-07-25T06:56:35.298Z,270
2018-07-25T06:57:15.751Z,270
2018-07-25T06:57:56.260Z,280
2018-07-25T06:58:36.761Z,275
2018-07-25T06:59:17.248Z,280
2018-07-25T06:59:57.793Z,270
2018-07-25T07:00:38.303Z,270
2018-07-25T07:01:18.844Z,270
2018-07-25T07:01:59.338Z,270
2018-07-25T07:02:39.840Z,275
2018-07-25T07:03:20.411Z,275
2018-07-25T07:04:00.911Z,275
2018-07-25T07:04:41.369Z,275
2018-07-25T07:05:21.865Z,275
2018-07-25T07:06:02.411Z,275
2018-07-25T07:06:43.022Z,275
2018-07-25T07:07:23.444Z,275
2018-07-25T07:08:03.973Z,275
2018-07-25T07:08:44.643Z,275
2018-07-25T07:09:25.151Z,270
2018-07-25T07:10:05.681Z,270
2018-07-25T07:10:46.161Z,275
2018-07-25T07:11:26.684Z,270
2018-07-25T07:12:07.201Z,270
2018-07-25T07:12:47.635Z,270
2018-07-25T07:13:28.117Z,270
2018-07-25T07:14:08.670Z,270
2018-07-25T07:14:49.179Z,270
2018-07-25T07:15:29.655Z,270
2018-07-25T07:16:10.190Z,265
2018-07-25T07:16:50.669Z,265
2018-07-25T07:17:31.255Z,265
2018-07-25T07:18:11.670Z,265
2018-07-25T07:18:52.164Z,265
2018-07-25T07:19:32.682Z,265
2018-07-25T07:20:13.199Z,265
2018-07-25T07:20:53.651Z,265
2018-07-25T07:21:34.166Z,265
2018-07-25T07:22:14.634Z,265
2018-07-25T07:22:55.121Z,265
2018-07-25T07:23:35.607Z,265
2018-07-25T07:24:16.113Z,265
2018-07-25T07:24:56.618Z,265
2018-07-25T07:25:37.075Z,265
2018-07-25T07:26:17.564Z,265
2018-07-25T07:26:58.056Z,265
2018-07-25T07:27:38.553Z,265
2018-07-25T07:28:19.090Z,260
2018-07-25T07:28:59.547Z,260
2018-07-25T07:29:40.100Z,260
2018-07-25T07:30:20.594Z,260
2018-07-25T07:31:01.087Z,260
2018-07-25T07:31:41.585Z,260
2018-07-25T07:32:22.079Z,260
2018-07-25T07:33:02.599Z,260
2018-07-25T07:33:43.116Z,260
2018-07-25T07:34:23.647Z,255
2018-07-25T07:35:04.173Z,255
2018-07-25T07:35:44.649Z,255
2018-07-25T07:36:25.139Z,255
2018-07-25T07:37:05.649Z,255
2018-07-25T07:37:46.211Z,250
2018-07-25T07:38:26.604Z,250
2018-07-25T07:39:07.136Z,250
2018-07-25T07:39:47.619Z,250
2018-07-25T07:40:28.116Z,250
2018-07-25T07:41:08.651Z,250
2018-07-25T07:41:49.156Z,250
2018-07-25T07:42:29.677Z,245
2018-07-25T07:43:10.418Z,245
2018-07-25T07:43:50.912Z,245
2018-07-25T07:44:31.430Z,245
2018-07-25T07:45:11.952Z,245
2018-07-25T07:45:52.421Z,245
2018-07-25T07:46:32.929Z,250
2018-07-25T07:47:13.430Z,250
2018-07-25T07:47:53.908Z,240
2018-07-25T07:48:34.426Z,240
2018-07-25T07:49:14.965Z,240
2018-07-25T07:49:55.464Z,240
2018-07-25T07:50:35.974Z,240
2018-07-25T07:51:16.480Z,235
2018-07-25T07:51:56.978Z,235
2018-07-25T07:52:37.528Z,235
2018-07-25T07:53:18.008Z,235
2018-07-25T07:53:58.543Z,235
2018-07-25T07:54:39.036Z,235
2018-07-25T07:55:19.549Z,230
2018-07-25T07:56:00.050Z,230
2018-07-25T07:56:40.533Z,230
2018-07-25T07:57:21.063Z,230
2018-07-25T07:58:01.547Z,230
2018-07-25T07:58:42.011Z,230
2018-07-25T07:59:22.587Z,225
2018-07-25T08:00:03.024Z,225
2018-07-25T08:00:43.519Z,225
2018-07-25T08:01:23.984Z,225
2018-07-25T08:02:04.456Z,225
2018-07-25T08:02:45.049Z,220
2018-07-25T08:03:25.626Z,220
2018-07-25T08:04:06.108Z,220
2018-07-25T08:04:46.623Z,220
2018-07-25T08:05:27.094Z,220
2018-07-25T08:06:07.639Z,220
2018-07-25T08:06:48.118Z,220
2018-07-25T08:07:28.665Z,220
2018-07-25T08:08:09.146Z,220
2018-07-25T08:08:49.659Z,220
2018-07-25T08:09:30.135Z,220
2018-07-25T08:10:10.685Z,220
2018-07-25T08:10:51.205Z,220
2018-07-25T08:11:31.683Z,215
2018-07-25T08:12:12.193Z,215
2018-07-25T08:12:52.712Z,215
2018-07-25T08:13:33.188Z,215
2018-07-25T08:14:13.664Z,215
2018-07-25T08:14:54.185Z,210
2018-07-25T08:15:34.712Z,210
2018-07-25T08:16:15.157Z,210
2018-07-25T08:16:55.712Z,210
2018-07-25T08:17:36.276Z,210
2018-07-25T08:18:16.716Z,210
2018-07-25T08:18:57.150Z,205
2018-07-25T08:19:37.702Z,205
2018-07-25T08:20:18.266Z,205
2018-07-25T08:20:58.797Z,205
2018-07-25T08:21:39.339Z,205
2018-07-25T08:22:19.779Z,200
2018-07-25T08:23:00.248Z,200
2018-07-25T08:23:40.889Z,200
2018-07-25T08:24:21.364Z,195
2018-07-25T08:25:01.867Z,190
2018-07-25T08:25:42.413Z,190
2018-07-25T08:26:22.884Z,185
2018-07-25T08:27:03.371Z,180
2018-07-25T08:27:43.937Z,180
2018-07-25T08:28:24.362Z,180
2018-07-25T08:29:04.889Z,175
2018-07-25T08:29:45.327Z,175
2018-07-25T08:30:25.813Z,175
2018-07-25T08:31:06.336Z,175
2018-07-25T08:31:46.883Z,175
2018-07-25T08:32:27.391Z,175
2018-07-25T08:33:07.882Z,175
2018-07-25T08:33:48.426Z,175
2018-07-25T08:34:28.991Z,170
2018-07-25T08:35:09.415Z,170
2018-07-25T08:35:49.941Z,170
2018-07-25T08:36:30.451Z,170
2018-07-25T08:37:10.970Z,170
2018-07-25T08:37:51.458Z,170
2018-07-25T08:38:31.974Z,170
2018-07-25T08:39:12.533Z,170
2018-07-25T08:39:52.979Z,170
2018-07-25T08:40:33.489Z,170
2018-07-25T08:41:14.022Z,170
2018-07-25T08:41:54.499Z,170
2018-07-25T08:42:35.038Z,170
2018-07-25T08:43:15.504Z,170
2018-07-25T08:43:56.043Z,165
2018-07-25T08:44:36.669Z,165
2018-07-25T08:45:17.123Z,165
2018-07-25T08:45:57.648Z,165
2018-07-25T08:46:38.168Z,165
2018-07-25T08:47:18.646Z,165
2018-07-25T08:47:59.147Z,165
2018-07-25T08:48:39.686Z,165
2018-07-25T08:49:20.171Z,160
2018-07-25T08:50:00.646Z,160
2018-07-25T08:50:41.211Z,160
2018-07-25T08:51:21.703Z,160
2018-07-25T08:52:02.241Z,160
2018-07-25T08:52:42.845Z,160
2018-07-25T08:53:23.279Z,160
2018-07-25T08:54:03.814Z,155
2018-07-25T08:54:44.281Z,155
2018-07-25T08:55:24.801Z,155
2018-07-25T08:56:05.272Z,155
2018-07-25T08:56:45.823Z,155
2018-07-25T08:57:26.332Z,155
2018-07-25T08:58:06.844Z,155
2018-07-25T08:58:47.382Z,155
2018-07-25T08:59:27.931Z,155
2018-07-25T09:00:08.429Z,155
2018-07-25T09:00:49.008Z,155
2018-07-25T09:01:29.489Z,155
2018-07-25T09:02:10.003Z,150
2018-07-25T09:02:50.595Z,150
2018-07-25T09:03:31.071Z,150
2018-07-25T09:04:11.650Z,150
2018-07-25T09:04:52.184Z,150
2018-07-25T09:05:32.651Z,150
2018-07-25T09:06:13.195Z,150
2018-07-25T09:06:53.691Z,150
2018-07-25T09:07:34.273Z,150
2018-07-25T09:08:14.703Z,150
2018-07-25T09:08:55.244Z,150
2018-07-25T09:09:35.732Z,150
2018-07-25T09:10:16.242Z,150
2018-07-25T09:10:56.688Z,150
2018-07-25T09:11:37.208Z,150
2018-07-25T09:12:17.725Z,150
2018-07-25T09:12:58.267Z,145
2018-07-25T09:13:38.776Z,145
2018-07-25T09:14:19.281Z,145
2018-07-25T09:14:59.736Z,145
2018-07-25T09:15:40.309Z,145
2018-07-25T09:16:20.828Z,145
2018-07-25T09:17:01.337Z,145
2018-07-25T09:17:41.853Z,145
2018-07-25T09:18:22.333Z,150
2018-07-25T09:19:02.912Z,145
2018-07-25T09:19:43.397Z,145
2018-07-25T09:20:23.937Z,145
2018-07-25T09:21:04.472Z,145
2018-07-25T09:21:44.923Z,145
2018-07-25T09:22:25.487Z,145
2018-07-25T09:23:06.206Z,145
2018-07-25T09:23:46.684Z,145
2018-07-25T09:24:27.151Z,145
2018-07-25T09:25:07.696Z,145
2018-07-25T09:25:48.159Z,145
2018-07-25T09:26:28.772Z,140
2018-07-25T09:27:09.284Z,140
2018-07-25T09:27:49.763Z,140
2018-07-25T09:28:30.239Z,140
2018-07-25T09:29:10.750Z,140
2018-07-25T09:29:51.266Z,140
2018-07-25T09:30:31.759Z,140
2018-07-25T09:31:12.276Z,140
2018-07-25T09:31:52.767Z,140
2018-07-25T09:32:33.326Z,140
2018-07-25T09:33:13.874Z,140
2018-07-25T09:33:54.338Z,140
2018-07-25T09:34:34.802Z,140
2018-07-25T09:35:15.269Z,140
2018-07-25T09:35:55.758Z,140
2018-07-25T09:36:36.254Z,140